createdAt,value
2023-05-14T00:01:14.210Z,99390.60
2023-05-14T00:03:50.690Z,99384.20
2023-05-14T00:06:27.096Z,99385.40
2023-05-14T00:09:04.446Z,99380.20
2023-05-14T00:11:40.718Z,99382.20
2023-05-14T00:14:17.265Z,99380.20
2023-05-14T00:16:53.623Z,99387.00
2023-05-14T00:19:29.902Z,99385.20
2023-05-14T00:22:06.896Z,99382.40
2023-05-14T00:24:43.149Z,99385.20
2023-05-14T00:27:19.619Z,99384.20
2023-05-14T00:29:56.076Z,99381.20
2023-05-14T00:32:32.696Z,99381.80
2023-05-14T00:35:11.166Z,99384.20
2023-05-14T00:37:47.603Z,99387.00
2023-05-14T00:40:26.744Z,99385.20
2023-05-14T00:43:03.120Z,99390.40
2023-05-14T00:45:39.728Z,99394.80
2023-05-14T00:48:16.496Z,99397.60
2023-05-14T00:50:54.002Z,99394.40
2023-05-14T00:53:32.062Z,99395.60
2023-05-14T00:56:09.818Z,99396.60
2023-05-14T00:58:46.231Z,99396.60
2023-05-14T01:01:22.599Z,99395.80
2023-05-14T01:03:59.510Z,99396.60
2023-05-14T01:06:53.179Z,99392.60
2023-05-14T01:09:43.361Z,99391.00
2023-05-14T01:12:33.618Z,99390.60
2023-05-14T01:15:16.873Z,99392.20
2023-05-14T01:18:03.123Z,99393.20
2023-05-14T01:20:39.761Z,99392.80
2023-05-14T01:23:17.989Z,99393.60
2023-05-14T01:25:54.466Z,99389.60
2023-05-14T01:28:38.053Z,99388.00
2023-05-14T01:31:25.261Z,99388.40
2023-05-14T01:34:05.529Z,99381.00
2023-05-14T01:36:43.313Z,99377.00
2023-05-14T01:39:20.534Z,99379.80
2023-05-14T01:41:57.669Z,99376.00
2023-05-14T01:44:34.586Z,99375.20
2023-05-14T01:47:11.376Z,99384.00
2023-05-14T01:49:47.582Z,99381.40
2023-05-14T01:52:24.097Z,99380.20
2023-05-14T01:55:00.655Z,99382.60
2023-05-14T01:57:36.888Z,99377.80
2023-05-14T02:00:16.118Z,99375.40
2023-05-14T02:02:52.421Z,99373.20
2023-05-14T02:05:29.232Z,99370.00
2023-05-14T02:08:06.094Z,99371.20
2023-05-14T02:10:42.561Z,99368.20
2023-05-14T02:13:19.544Z,99367.40
2023-05-14T02:15:55.858Z,99362.20
2023-05-14T02:18:32.319Z,99361.00
2023-05-14T02:21:08.966Z,99363.20
2023-05-14T02:23:45.133Z,99356.60
2023-05-14T02:26:21.508Z,99358.80
2023-05-14T02:28:57.761Z,99362.00
2023-05-14T02:31:34.466Z,99359.20
2023-05-14T02:34:11.230Z,99358.60
2023-05-14T02:36:47.733Z,99351.60
2023-05-14T02:39:24.235Z,99349.80
2023-05-14T02:42:00.465Z,99346.80
2023-05-14T02:44:37.430Z,99346.00
2023-05-14T02:47:13.759Z,99344.40
2023-05-14T02:49:50.509Z,99339.80
2023-05-14T02:52:26.751Z,99335.60
2023-05-14T02:55:03.247Z,99331.80
2023-05-14T02:57:41.178Z,99330.80
2023-05-14T03:00:20.028Z,99331.20
2023-05-14T03:02:56.804Z,99334.60
2023-05-14T03:05:33.525Z,99333.00
2023-05-14T03:08:10.061Z,99331.60
2023-05-14T03:10:46.612Z,99329.20
2023-05-14T03:13:23.334Z,99332.80
2023-05-14T03:16:00.082Z,99328.60
2023-05-14T03:18:36.819Z,99330.00
2023-05-14T03:21:14.298Z,99325.60
2023-05-14T03:23:50.965Z,99322.20
2023-05-14T03:26:28.193Z,99316.60
2023-05-14T03:29:05.187Z,99312.40
2023-05-14T03:31:41.652Z,99309.00
2023-05-14T03:34:17.945Z,99311.40
2023-05-14T03:36:55.132Z,99313.40
2023-05-14T03:39:31.438Z,99311.20
2023-05-14T03:42:08.356Z,99314.60
2023-05-14T03:44:44.973Z,99316.40
2023-05-14T03:47:21.415Z,99317.60
2023-05-14T03:49:58.317Z,99320.40
2023-05-14T03:52:34.829Z,99325.40
2023-05-14T03:55:14.128Z,99329.00
2023-05-14T03:57:53.110Z,99331.20
2023-05-14T04:00:29.905Z,99333.40
2023-05-14T04:03:06.183Z,99333.40
2023-05-14T04:05:42.752Z,99329.00
2023-05-14T04:08:19.027Z,99330.60
2023-05-14T04:10:55.571Z,99327.40
2023-05-14T04:13:32.495Z,99327.20
2023-05-14T04:16:09.882Z,99328.80
2023-05-14T04:18:46.441Z,99337.00
2023-05-14T04:21:22.992Z,99339.20
2023-05-14T04:24:00.263Z,99333.20
2023-05-14T04:26:37.048Z,99330.20
2023-05-14T04:29:13.412Z,99326.60
2023-05-14T04:31:50.228Z,99329.20
2023-05-14T04:34:26.540Z,99330.80
2023-05-14T04:37:03.837Z,99328.40
2023-05-14T04:39:40.800Z,99326.00
2023-05-14T04:42:16.955Z,99326.80
2023-05-14T04:44:53.216Z,99329.40
2023-05-14T04:47:29.793Z,99332.60
2023-05-14T04:50:09.335Z,99332.00
2023-05-14T04:52:45.868Z,99339.00
2023-05-14T04:55:22.635Z,99334.20
2023-05-14T04:57:59.381Z,99338.60
2023-05-14T05:00:37.603Z,99337.60
2023-05-14T05:03:14.025Z,99336.60
2023-05-14T05:05:50.922Z,99334.60
2023-05-14T05:08:27.601Z,99332.60
2023-05-14T05:11:04.159Z,99328.00
2023-05-14T05:13:40.720Z,99331.20
2023-05-14T05:16:17.996Z,99334.60
2023-05-14T05:18:54.384Z,99337.20
2023-05-14T05:21:30.866Z,99337.40
2023-05-14T05:24:08.376Z,99337.20
2023-05-14T05:26:44.912Z,99333.40
2023-05-14T05:29:21.142Z,99334.60
2023-05-14T05:31:57.762Z,99333.40
2023-05-14T05:34:34.063Z,99328.20
2023-05-14T05:37:13.025Z,99328.80
2023-05-14T05:39:49.519Z,99327.20
2023-05-14T05:42:26.243Z,99330.60
2023-05-14T05:45:02.893Z,99327.80
2023-05-14T05:47:39.313Z,99324.60
2023-05-14T05:50:18.839Z,99321.60
2023-05-14T05:52:56.886Z,99325.60
2023-05-14T05:55:33.192Z,99327.60
2023-05-14T05:58:09.518Z,99326.60
2023-05-14T06:00:46.618Z,99326.00
2023-05-14T06:03:23.478Z,99328.40
2023-05-14T06:05:59.777Z,99326.00
2023-05-14T06:08:35.980Z,99327.00
2023-05-14T06:11:13.009Z,99327.00
2023-05-14T06:13:49.396Z,99330.20
2023-05-14T06:16:25.989Z,99338.00
2023-05-14T06:19:02.625Z,99336.40
2023-05-14T06:21:38.897Z,99332.00
2023-05-14T06:24:16.525Z,99325.80
2023-05-14T06:26:52.787Z,99324.60
2023-05-14T06:29:29.777Z,99321.40
2023-05-14T06:32:10.475Z,99324.60
2023-05-14T06:34:47.588Z,99324.80
2023-05-14T06:37:23.769Z,99318.80
2023-05-14T06:40:00.282Z,99317.00
2023-05-14T06:42:36.480Z,99320.80
2023-05-14T06:45:15.797Z,99323.60
2023-05-14T06:47:52.086Z,99318.00
2023-05-14T06:50:28.551Z,99313.60
2023-05-14T06:53:04.849Z,99319.60
2023-05-14T06:55:41.230Z,99318.20
2023-05-14T06:58:17.506Z,99312.00
2023-05-14T07:00:54.093Z,99304.60
2023-05-14T07:03:30.523Z,99307.40
2023-05-14T07:06:07.934Z,99308.20
2023-05-14T07:08:46.045Z,99311.60
2023-05-14T07:11:23.169Z,99304.80
2023-05-14T07:13:59.549Z,99310.00
2023-05-14T07:16:36.124Z,99307.60
2023-05-14T07:19:12.922Z,99313.80
2023-05-14T07:21:49.694Z,99316.00
2023-05-14T07:24:25.958Z,99317.40
2023-05-14T07:27:02.929Z,99318.00
2023-05-14T07:29:39.200Z,99321.00
2023-05-14T07:32:15.846Z,99311.80
2023-05-14T07:34:52.371Z,99324.00
2023-05-14T07:37:28.989Z,99329.00
2023-05-14T07:40:07.101Z,99332.80
2023-05-14T07:42:43.458Z,99336.60
2023-05-14T07:45:20.258Z,99332.80
2023-05-14T07:47:56.625Z,99330.20
2023-05-14T07:50:33.101Z,99332.40
2023-05-14T07:53:09.665Z,99319.40
2023-05-14T07:55:48.200Z,99313.00
2023-05-14T07:58:25.334Z,99308.20
2023-05-14T08:01:03.984Z,99299.20
2023-05-14T08:03:40.282Z,99296.60
2023-05-14T08:06:16.658Z,99293.60
2023-05-14T08:08:53.006Z,99287.40
2023-05-14T08:11:29.582Z,99286.00
2023-05-14T08:14:05.954Z,99280.60
2023-05-14T08:16:42.292Z,99280.20
2023-05-14T08:19:19.921Z,99278.60
2023-05-14T08:21:56.146Z,99276.60
2023-05-14T08:24:32.905Z,99278.40
2023-05-14T08:27:09.949Z,99269.80
2023-05-14T08:29:56.557Z,99268.40
2023-05-14T08:32:33.966Z,99261.00
2023-05-14T08:35:15.292Z,99271.40
2023-05-14T08:37:52.447Z,99258.20
2023-05-14T08:40:29.606Z,99256.20
2023-05-14T08:43:07.517Z,99246.20
2023-05-14T08:45:45.327Z,99251.00
2023-05-14T08:48:24.337Z,99242.80
2023-05-14T08:51:03.146Z,99235.80
2023-05-14T08:53:40.474Z,99239.40
2023-05-14T08:56:19.536Z,99234.80
2023-05-14T08:58:56.160Z,99245.00
2023-05-14T09:01:33.153Z,99237.80
2023-05-14T09:04:11.138Z,99240.40
2023-05-14T09:06:50.148Z,99234.60
2023-05-14T09:09:27.441Z,99234.00
2023-05-14T09:12:07.504Z,99231.00
2023-05-14T09:14:44.187Z,99224.80
2023-05-14T09:17:21.566Z,99214.40
2023-05-14T09:19:59.702Z,99211.80
2023-05-14T09:22:37.691Z,99217.80
2023-05-14T09:25:15.754Z,99218.00
2023-05-14T09:27:56.697Z,99211.60
2023-05-14T09:30:37.041Z,99207.20
2023-05-14T09:33:13.794Z,99208.40
2023-05-14T09:35:51.512Z,99198.20
2023-05-14T09:38:33.377Z,99202.60
2023-05-14T09:41:09.999Z,99200.00
2023-05-14T09:43:46.357Z,99195.60
2023-05-14T09:46:23.721Z,99201.20
2023-05-14T09:49:01.729Z,99191.80
2023-05-14T09:51:40.269Z,99188.60
2023-05-14T09:54:16.915Z,99191.80
2023-05-14T09:56:55.476Z,99178.80
2023-05-14T09:59:32.097Z,99177.80
2023-05-14T10:02:17.521Z,99172.60
2023-05-14T10:04:58.125Z,99173.80
2023-05-14T10:07:44.036Z,99170.40
2023-05-14T10:10:28.014Z,99169.20
2023-05-14T10:19:54.848Z,99156.80
2023-05-14T10:22:37.065Z,99154.60
2023-05-14T10:25:15.195Z,99158.80
2023-05-14T10:27:51.681Z,99151.20
2023-05-14T10:30:29.154Z,99139.80
2023-05-14T10:33:18.828Z,99134.80
2023-05-14T10:36:04.629Z,99131.20
2023-05-14T10:38:41.735Z,99126.80
2023-05-14T10:41:19.043Z,99109.20
2023-05-14T10:43:58.609Z,99107.20
2023-05-14T10:46:35.842Z,99100.80
2023-05-14T10:49:12.601Z,99098.60
2023-05-14T10:51:57.289Z,99094.00
2023-05-14T10:54:38.080Z,99096.60
2023-05-14T10:57:18.731Z,99092.00
2023-05-14T10:59:58.022Z,99095.80
2023-05-14T11:02:38.809Z,99087.00
2023-05-14T11:05:18.205Z,99077.40
2023-05-14T11:07:57.557Z,99084.80
2023-05-14T11:10:34.089Z,99073.00
2023-05-14T11:13:11.590Z,99067.40
2023-05-14T11:15:49.533Z,99070.00
2023-05-14T11:18:38.658Z,99066.20
2023-05-14T11:21:15.035Z,99054.00
2023-05-14T11:23:55.773Z,99055.40
2023-05-14T11:26:32.516Z,99044.20
2023-05-14T11:29:09.318Z,99054.80
2023-05-14T11:31:46.217Z,99049.20
2023-05-14T11:34:22.699Z,99049.60
2023-05-14T11:36:59.310Z,99052.40
2023-05-14T11:39:36.289Z,99055.00
2023-05-14T11:42:18.658Z,99050.80
2023-05-14T11:44:56.786Z,99043.20
2023-05-14T11:47:34.585Z,99042.80
2023-05-14T11:50:13.243Z,99045.60
2023-05-14T11:52:51.153Z,99037.80
2023-05-14T11:55:28.015Z,99038.60
2023-05-14T11:58:04.913Z,99030.80
2023-05-14T12:00:42.451Z,99024.60
2023-05-14T12:03:25.660Z,99028.60
2023-05-14T12:06:09.560Z,99026.80
2023-05-14T12:08:49.540Z,99017.20
2023-05-14T12:11:27.315Z,99016.00
2023-05-14T12:14:14.542Z,99010.40
2023-05-14T12:16:53.891Z,99010.80
2023-05-14T12:19:33.279Z,99003.20
2023-05-14T12:22:11.216Z,98990.60
2023-05-14T12:24:59.115Z,98989.40
2023-05-14T12:27:40.349Z,98981.00
2023-05-14T12:30:27.516Z,98985.40
2023-05-14T12:33:04.314Z,98972.20
2023-05-14T12:35:41.036Z,98971.80
2023-05-14T12:38:17.425Z,98960.80
2023-05-14T12:40:54.134Z,98958.40
2023-05-14T12:43:32.281Z,98965.20
2023-05-14T12:46:08.916Z,98955.60
2023-05-14T12:48:45.442Z,98956.60
2023-05-14T12:51:22.040Z,98954.00
2023-05-14T12:53:58.481Z,98952.20
2023-05-14T12:56:35.019Z,98948.80
2023-05-14T12:59:11.423Z,98949.80
2023-05-14T13:01:48.091Z,98949.80
2023-05-14T13:04:25.495Z,98941.40
2023-05-14T13:07:02.514Z,98932.00
2023-05-14T13:09:39.078Z,98935.80
2023-05-14T13:12:16.034Z,98940.00
2023-05-14T13:14:52.586Z,98938.60
2023-05-14T13:17:29.117Z,98951.40
2023-05-14T13:20:06.251Z,98942.00
2023-05-14T13:22:42.492Z,98938.20
2023-05-14T13:25:19.643Z,98929.00
2023-05-14T13:27:56.549Z,98919.00
2023-05-14T13:30:33.564Z,98929.20
2023-05-14T13:33:10.823Z,98934.40
2023-05-14T13:35:47.879Z,98929.00
2023-05-14T13:38:24.440Z,98926.80
2023-05-14T13:41:03.168Z,98918.00
2023-05-14T13:43:40.473Z,98915.00
2023-05-14T13:46:17.190Z,98914.40
2023-05-14T13:48:56.033Z,98909.00
2023-05-14T13:51:32.579Z,98909.20
2023-05-14T13:54:09.466Z,98907.60
2023-05-14T13:56:46.431Z,98903.00
2023-05-14T13:59:24.039Z,98889.80
2023-05-14T14:02:01.259Z,98888.40
2023-05-14T14:04:38.552Z,98888.40
2023-05-14T14:07:18.243Z,98879.60
2023-05-14T14:09:55.734Z,98873.00
2023-05-14T14:12:32.496Z,98872.00
2023-05-14T14:15:11.898Z,98866.80
2023-05-14T14:17:49.326Z,98869.80
2023-05-14T14:20:26.342Z,98863.20
2023-05-14T14:23:03.823Z,98852.60
2023-05-14T14:25:40.554Z,98848.60
2023-05-14T14:28:17.637Z,98851.80
2023-05-14T14:30:55.056Z,98852.40
2023-05-14T14:33:31.970Z,98862.00
2023-05-14T14:36:10.066Z,98848.20
2023-05-14T14:38:47.316Z,98846.60
2023-05-14T14:41:30.083Z,98843.60
2023-05-14T14:44:10.241Z,98836.80
2023-05-14T14:46:48.282Z,98832.60
2023-05-14T14:49:27.841Z,98828.20
2023-05-14T14:52:04.936Z,98825.00
2023-05-14T14:54:42.718Z,98822.40
2023-05-14T14:57:20.166Z,98820.80
2023-05-14T14:59:57.854Z,98816.60
2023-05-14T15:02:35.471Z,98804.40
2023-05-14T15:05:14.188Z,98804.00
2023-05-14T15:07:51.287Z,98801.40
2023-05-14T15:10:38.043Z,98792.80
2023-05-14T15:13:15.801Z,98794.80
2023-05-14T15:15:55.828Z,98791.80
2023-05-14T15:18:33.088Z,98789.60
2023-05-14T15:21:11.636Z,98786.20
2023-05-14T15:23:48.826Z,98783.40
2023-05-14T15:26:26.362Z,98782.20
2023-05-14T15:29:04.745Z,98778.40
2023-05-14T15:31:41.878Z,98775.80
2023-05-14T15:34:18.503Z,98770.40
2023-05-14T15:36:57.541Z,98773.00
2023-05-14T15:39:34.931Z,98774.00
2023-05-14T15:42:13.101Z,98774.60
2023-05-14T15:44:50.007Z,98773.40
2023-05-14T15:47:27.111Z,98771.20
2023-05-14T15:50:04.881Z,98773.80
2023-05-14T15:52:44.245Z,98768.20
2023-05-14T15:55:21.489Z,98762.80
2023-05-14T15:57:58.766Z,98761.40
2023-05-14T16:00:35.494Z,98757.00
2023-05-14T16:03:12.672Z,98751.20
2023-05-14T16:05:49.553Z,98746.80
2023-05-14T16:08:26.391Z,98740.60
2023-05-14T16:11:03.368Z,98734.20
2023-05-14T16:13:41.665Z,98728.40
2023-05-14T16:16:22.905Z,98723.40
2023-05-14T16:19:02.925Z,98725.80
2023-05-14T16:21:39.922Z,98713.40
2023-05-14T16:24:21.114Z,98708.60
2023-05-14T16:26:58.204Z,98716.40
2023-05-14T16:29:36.348Z,98716.00
2023-05-14T16:32:16.594Z,98718.60
2023-05-14T16:34:56.890Z,98717.60
2023-05-14T16:37:34.010Z,98717.80
2023-05-14T16:40:16.206Z,98708.40
2023-05-14T16:42:53.835Z,98707.60
2023-05-14T16:45:34.963Z,98703.40
2023-05-14T16:48:14.008Z,98702.40
2023-05-14T16:50:56.168Z,98695.40
2023-05-14T16:53:37.499Z,98695.40
2023-05-14T16:56:17.558Z,98693.40
2023-05-14T16:58:54.765Z,98697.40
2023-05-14T17:01:32.924Z,98700.60
2023-05-14T17:04:09.830Z,98696.80
2023-05-14T17:06:47.562Z,98694.60
2023-05-14T17:09:24.840Z,98695.00
2023-05-14T17:12:02.482Z,98694.60
2023-05-14T17:14:40.188Z,98692.60
2023-05-14T17:17:17.306Z,98684.60
2023-05-14T17:19:54.338Z,98684.00
2023-05-14T17:22:33.163Z,98676.80
2023-05-14T17:25:15.280Z,98670.60
2023-05-14T17:27:54.648Z,98664.20
2023-05-14T17:30:31.464Z,98658.80
2023-05-14T17:33:08.518Z,98660.00
2023-05-14T17:35:46.070Z,98655.80
2023-05-14T17:38:23.884Z,98653.60
2023-05-14T17:41:00.799Z,98654.20
2023-05-14T17:43:38.724Z,98647.40
2023-05-14T17:46:16.033Z,98647.60
2023-05-14T17:48:54.357Z,98650.00
2023-05-14T17:51:31.738Z,98643.20
2023-05-14T17:54:09.726Z,98643.60
2023-05-14T17:56:48.200Z,98644.80
2023-05-14T17:59:26.326Z,98645.00
2023-05-14T18:02:03.283Z,98634.20
2023-05-14T18:04:40.318Z,98641.60
2023-05-14T18:07:18.860Z,98635.40
2023-05-14T18:09:56.363Z,98649.20
2023-05-14T18:12:34.068Z,98646.40
2023-05-14T18:15:16.357Z,98648.80
2023-05-14T18:17:54.554Z,98655.60
2023-05-14T18:20:35.362Z,98672.00
2023-05-14T18:23:12.997Z,98678.80
2023-05-14T18:25:54.103Z,98681.00
2023-05-14T18:28:31.926Z,98686.40
2023-05-14T18:31:09.664Z,98684.80
2023-05-14T18:33:51.593Z,98685.60
2023-05-14T18:36:30.205Z,98683.00
2023-05-14T18:39:08.389Z,98695.40
2023-05-14T18:41:47.151Z,98691.40
2023-05-14T18:44:24.748Z,98692.20
2023-05-14T18:47:02.893Z,98684.40
2023-05-14T18:49:42.259Z,98684.60
2023-05-14T18:52:20.307Z,98678.20
2023-05-14T18:54:57.981Z,98666.40
2023-05-14T18:57:37.918Z,98658.20
2023-05-14T19:00:20.304Z,98655.00
2023-05-14T19:02:57.976Z,98655.20
2023-05-14T19:05:37.372Z,98657.00
2023-05-14T19:08:19.080Z,98660.20
2023-05-14T19:10:59.172Z,98656.60
2023-05-14T19:13:37.057Z,98657.80
2023-05-14T19:16:14.789Z,98658.00
2023-05-14T19:18:53.411Z,98665.80
2023-05-14T19:21:32.443Z,98680.40
2023-05-14T19:24:11.453Z,98687.60
2023-05-14T19:26:52.740Z,98676.60
2023-05-14T19:29:32.435Z,98686.00
2023-05-14T19:32:18.629Z,98694.80
2023-05-14T19:35:00.233Z,98698.80
2023-05-14T19:37:40.485Z,98698.80
2023-05-14T19:40:22.002Z,98698.20
2023-05-14T19:42:59.557Z,98703.60
2023-05-14T19:45:42.815Z,98706.40
2023-05-14T19:48:20.592Z,98704.40
2023-05-14T19:51:01.240Z,98700.00
2023-05-14T19:53:40.604Z,98700.60
2023-05-14T19:56:19.788Z,98700.00
2023-05-14T19:58:58.455Z,98697.40
2023-05-14T20:01:37.365Z,98697.20
2023-05-14T20:04:16.268Z,98703.00
2023-05-14T20:06:56.934Z,98704.80
2023-05-14T20:09:35.017Z,98702.40
2023-05-14T20:12:16.919Z,98701.20
2023-05-14T20:14:56.112Z,98694.80
2023-05-14T20:17:41.187Z,98693.60
2023-05-14T20:20:20.956Z,98686.60
2023-05-14T20:22:58.979Z,98682.80
2023-05-14T20:25:36.735Z,98682.80
2023-05-14T20:28:17.320Z,98676.40
2023-05-14T20:30:59.038Z,98666.80
2023-05-14T20:33:37.648Z,98653.20
2023-05-14T20:36:18.539Z,98651.60
2023-05-14T20:39:02.351Z,98648.80
2023-05-14T20:41:46.447Z,98636.80
2023-05-14T20:44:25.205Z,98632.40
2023-05-14T20:47:04.674Z,98627.20
2023-05-14T20:49:45.569Z,98621.80
2023-05-14T20:52:23.822Z,98612.40
2023-05-14T20:55:02.445Z,98607.80
2023-05-14T20:57:39.924Z,98601.20
2023-05-14T21:00:21.474Z,98597.60
2023-05-14T21:03:00.377Z,98593.40
2023-05-14T21:05:38.040Z,98589.00
2023-05-14T21:08:17.271Z,98582.00
2023-05-14T21:10:54.538Z,98576.80
2023-05-14T21:13:31.447Z,98568.80
2023-05-14T21:16:11.489Z,98555.20
2023-05-14T21:18:48.500Z,98548.20
2023-05-14T21:21:26.032Z,98536.40
2023-05-14T21:24:04.520Z,98528.20
2023-05-14T21:26:43.430Z,98519.80
2023-05-14T21:29:34.627Z,98518.40
2023-05-14T21:32:14.458Z,98514.60
2023-05-14T21:34:50.937Z,98511.00
2023-05-14T21:37:27.606Z,98505.80
2023-05-14T21:40:05.472Z,98504.20
2023-05-14T21:42:42.074Z,98508.00
2023-05-14T21:45:18.660Z,98508.80
2023-05-14T21:47:55.272Z,98503.00
2023-05-14T21:50:31.897Z,98495.60
2023-05-14T21:53:08.258Z,98494.80
2023-05-14T21:55:44.917Z,98494.60
2023-05-14T21:58:22.223Z,98489.80
2023-05-14T22:00:58.729Z,98482.00
2023-05-14T22:03:35.850Z,98477.60
2023-05-14T22:06:12.699Z,98474.80
2023-05-14T22:08:49.117Z,98472.00
2023-05-14T22:11:25.700Z,98471.40
2023-05-14T22:14:02.089Z,98471.80
2023-05-14T22:16:38.455Z,98466.80
2023-05-14T22:19:15.040Z,98461.00
2023-05-14T22:21:51.560Z,98456.00
2023-05-14T22:24:28.539Z,98452.60
2023-05-14T22:27:05.364Z,98453.40
2023-05-14T22:29:41.713Z,98444.20
2023-05-14T22:32:17.913Z,98435.60
2023-05-14T22:34:54.270Z,98413.20
2023-05-14T22:37:30.983Z,98411.20
2023-05-14T22:40:10.167Z,98411.80
2023-05-14T22:42:46.489Z,98409.20
2023-05-14T22:45:23.215Z,98408.20
2023-05-14T22:47:59.921Z,98416.60
2023-05-14T22:50:36.316Z,98424.60
2023-05-14T22:53:12.645Z,98427.60
2023-05-14T22:55:49.134Z,98421.40
2023-05-14T22:58:25.401Z,98420.60
2023-05-14T23:01:02.037Z,98430.80
2023-05-14T23:03:38.432Z,98414.40
2023-05-14T23:06:15.107Z,98414.00
2023-05-14T23:08:52.133Z,98410.80
2023-05-14T23:11:28.753Z,98412.40
2023-05-14T23:14:05.133Z,98414.60
2023-05-14T23:16:41.576Z,98406.80
2023-05-14T23:19:18.425Z,98407.40
2023-05-14T23:21:55.002Z,98416.20
2023-05-14T23:24:31.403Z,98417.00
2023-05-14T23:27:08.956Z,98415.80
2023-05-14T23:29:45.572Z,98409.40
2023-05-14T23:32:22.053Z,98404.40
2023-05-14T23:34:58.760Z,98395.80
2023-05-14T23:37:36.853Z,98386.20
2023-05-14T23:40:15.849Z,98374.00
2023-05-14T23:42:52.194Z,98368.60
2023-05-14T23:45:28.480Z,98367.40
2023-05-14T23:48:06.030Z,98362.40
2023-05-14T23:50:42.421Z,98362.20
2023-05-14T23:53:19.004Z,98355.80
2023-05-14T23:55:55.371Z,98345.20
2023-05-14T23:58:32.658Z,98344.40
